Time;durP1;ratioP1;P1;durP2;ratioP2;P2;SDS_P1;SDS_P2;PMS_P1;PMS_P2;Temp;Humidity;BMP_temperature;BMP_pressure;BME280_temperature;BME280_humidity;BME280_pressure;Samples;Min_cycle;Max_cycle;Signal;HPM_P1;HPM_P2
2023/01/25 00:02:22;;;;;;;43.25;23.52;;;;;;;2.42;100.00;103372.72;4956723;28;20049;-79
2023/01/25 00:04:48;;;;;;;44.53;22.98;;;;;;;2.37;100.00;103350.91;4955947;28;20061;-79
2023/01/25 00:07:15;;;;;;;46.65;23.25;;;;;;;2.39;100.00;103356.88;4957524;28;20049;-78
2023/01/25 00:09:41;;;;;;;41.83;22.20;;;;;;;2.35;100.00;103351.16;4966443;28;20900;-79
2023/01/25 00:12:08;;;;;;;40.38;22.13;;;;;;;2.36;100.00;103351.97;4967316;28;20412;-79
2023/01/25 00:14:34;;;;;;;43.67;22.45;;;;;;;2.33;100.00;103347.88;4952958;28;20061;-80
2023/01/25 00:17:01;;;;;;;40.75;20.58;;;;;;;2.36;100.00;103354.69;4955540;28;20047;-80
2023/01/25 00:19:27;;;;;;;43.20;23.20;;;;;;;2.22;100.00;103345.47;4953415;28;20050;-80
2023/01/25 00:21:54;;;;;;;45.35;24.33;;;;;;;2.23;100.00;103345.19;4961855;28;20345;-80
2023/01/25 00:24:21;;;;;;;41.25;21.25;;;;;;;2.30;100.00;103350.38;4962835;28;20057;-80
2023/01/25 00:26:48;;;;;;;45.75;23.48;;;;;;;2.21;100.00;103335.66;4952589;28;20055;-78
2023/01/25 00:29:15;;;;;;;41.58;23.13;;;;;;;2.22;100.00;103340.81;4955880;28;20047;-81
2023/01/25 00:31:54;;;;;;;42.40;22.20;;;;;;;2.26;100.00;103338.38;4955148;28;20868;-81
2023/01/25 00:34:23;;;;;;;42.38;21.48;;;;;;;2.27;100.00;103332.59;4953864;28;20149;-80
2023/01/25 00:36:55;;;;;;;39.15;21.90;;;;;;;2.26;100.00;103324.72;4951206;28;20074;-80
2023/01/25 00:39:24;;;;;;;44.70;25.02;;;;;;;2.27;100.00;103331.81;4956256;28;20775;-78
2023/01/25 00:41:50;;;;;;;37.13;19.75;;;;;;;2.22;100.00;103315.41;4954970;28;20050;-81
2023/01/25 00:44:17;;;;;;;42.80;24.10;;;;;;;2.24;100.00;103321.44;4959823;28;20043;-80
2023/01/25 00:46:43;;;;;;;37.78;18.65;;;;;;;2.21;100.00;103313.78;4953006;28;20048;-80
2023/01/25 00:49:24;;;;;;;42.72;20.30;;;;;;;2.23;100.00;103311.59;4965398;28;20046;-80
2023/01/25 00:51:52;;;;;;;41.78;21.67;;;;;;;2.24;100.00;103318.69;4953341;28;20129;-80
2023/01/25 00:54:19;;;;;;;39.65;20.48;;;;;;;2.20;100.00;103314.91;4953757;28;20043;-80
2023/01/25 00:56:46;;;;;;;39.30;21.42;;;;;;;2.25;100.00;103320.31;4962383;28;20059;-79
2023/01/25 00:59:13;;;;;;;39.63;21.52;;;;;;;2.24;100.00;103315.97;4966851;28;20046;-80
2023/01/25 01:01:41;;;;;;;39.30;21.25;;;;;;;2.24;100.00;103321.44;4966527;28;20107;-80
2023/01/25 01:04:07;;;;;;;40.17;21.13;;;;;;;2.24;100.00;103315.97;4951771;28;20047;-79
2023/01/25 01:06:36;;;;;;;36.22;19.77;;;;;;;2.20;100.00;103309.44;4955358;28;20042;-80
2023/01/25 01:09:05;;;;;;;40.80;20.38;;;;;;;2.25;100.00;103314.84;4960793;28;20050;-79
2023/01/25 01:11:31;;;;;;;37.20;18.63;;;;;;;2.18;100.00;103298.78;4949911;28;20045;-79
2023/01/25 01:13:58;;;;;;;37.00;18.20;;;;;;;2.17;100.00;103297.13;4958154;28;20058;-79
2023/01/25 01:16:25;;;;;;;38.20;17.63;;;;;;;2.16;100.00;103306.41;4962844;28;20821;-80
2023/01/25 01:18:52;;;;;;;36.53;19.67;;;;;;;2.16;100.00;103302.88;4969463;28;20057;-79
2023/01/25 01:21:19;;;;;;;41.05;20.33;;;;;;;2.12;100.00;103293.59;4955935;28;20864;-80
2023/01/25 01:23:46;;;;;;;39.33;20.83;;;;;;;2.14;100.00;103303.16;4955842;28;20051;-82
2023/01/25 01:26:15;;;;;;;37.67;19.38;;;;;;;2.11;100.00;103305.63;4961766;28;20402;-80
2023/01/25 01:28:42;;;;;;;36.83;20.08;;;;;;;2.06;100.00;103300.19;4970495;28;20051;-80
2023/01/25 01:31:15;;;;;;;37.97;19.90;;;;;;;2.09;100.00;103311.38;4968898;28;20919;-80
2023/01/25 01:33:42;;;;;;;42.08;22.73;;;;;;;2.08;100.00;103306.19;4963833;28;20872;-80
2023/01/25 01:36:11;;;;;;;39.35;20.50;;;;;;;2.07;100.00;103299.91;4963779;28;20047;-81
2023/01/25 01:38:38;;;;;;;39.40;22.10;;;;;;;2.10;100.00;103307.53;4952813;28;20046;-78
2023/01/25 01:41:04;;;;;;;38.03;21.27;;;;;;;2.08;100.00;103307.00;4949273;28;20061;-80
2023/01/25 01:43:32;;;;;;;42.25;22.20;;;;;;;2.09;100.00;103303.16;4955419;28;20149;-82
2023/01/25 01:46:07;;;;;;;43.20;21.23;;;;;;;2.12;100.00;103309.97;4955526;28;20046;-80
2023/01/25 01:48:54;;;;;;;39.27;21.57;;;;;;;2.09;100.00;103308.63;4954473;28;20715;-80
2023/01/25 01:51:27;;;;;;;37.58;19.13;;;;;;;2.10;100.00;103299.34;4950616;28;20314;-80
2023/01/25 01:53:59;;;;;;;39.10;21.10;;;;;;;2.10;100.00;103299.34;4954075;28;20060;-80
2023/01/25 01:56:33;;;;;;;38.42;19.38;;;;;;;2.11;100.00;103291.97;4963783;28;20050;-80
2023/01/25 01:59:01;;;;;;;37.70;18.83;;;;;;;2.16;100.00;103305.63;4957430;28;20185;-80
2023/01/25 02:01:28;;;;;;;39.15;21.02;;;;;;;2.12;100.00;103302.63;4955219;28;20069;-81
2023/01/25 02:03:55;;;;;;;41.53;21.02;;;;;;;2.12;100.00;103299.06;4960521;28;20181;-78
2023/01/25 02:06:26;;;;;;;37.40;20.20;;;;;;;2.13;100.00;103292.53;4953211;28;20433;-78
2023/01/25 02:08:53;;;;;;;42.10;21.15;;;;;;;2.07;100.00;103282.69;4957736;28;20062;-80
2023/01/25 02:11:20;;;;;;;36.20;18.95;;;;;;;2.11;100.00;103287.34;4969358;28;20142;-80
2023/01/25 02:13:47;;;;;;;39.55;20.27;;;;;;;2.14;100.00;103294.16;4962981;28;20047;-80
2023/01/25 02:16:18;;;;;;;38.70;21.13;;;;;;;2.12;100.00;103288.97;4954912;28;20051;-80
2023/01/25 02:18:45;;;;;;;49.45;22.42;;;;;;;2.15;100.00;103295.78;4950330;28;20539;-81
2023/01/25 02:21:12;;;;;;;43.63;22.02;;;;;;;2.11;100.00;103295.53;4951969;28;20050;-80
2023/01/25 02:23:47;;;;;;;45.88;23.52;;;;;;;2.09;100.00;103286.78;4955121;28;20053;-81
2023/01/25 02:26:16;;;;;;;44.40;23.45;;;;;;;2.03;100.00;103274.22;4956269;28;20061;-82
2023/01/25 02:28:46;;;;;;;46.75;22.98;;;;;;;2.12;100.00;103293.59;4953290;28;20047;-81
2023/01/25 02:31:12;;;;;;;45.63;22.90;;;;;;;2.13;100.00;103293.31;4952020;28;20054;-81
2023/01/25 02:33:39;;;;;;;43.42;21.55;;;;;;;2.05;100.00;103282.16;4951824;28;20094;-79
2023/01/25 02:36:05;;;;;;;44.03;22.30;;;;;;;2.12;100.00;103293.59;4952963;28;20198;-78
2023/01/25 02:38:38;;;;;;;46.00;24.42;;;;;;;2.07;100.00;103282.69;4949062;28;20046;-81
2023/01/25 02:41:14;;;;;;;48.50;22.95;;;;;;;2.13;100.00;103289.78;4955854;28;20051;-79
2023/01/25 02:43:40;;;;;;;47.20;23.70;;;;;;;2.09;100.00;103294.16;4970215;28;20038;-79
2023/01/25 02:46:16;;;;;;;43.65;21.83;;;;;;;2.14;100.00;103297.69;4990642;28;20046;-79
2023/01/25 02:48:43;;;;;;;47.90;24.00;;;;;;;2.14;100.00;103305.91;4976192;28;20066;-79
2023/01/25 02:51:09;;;;;;;45.78;23.83;;;;;;;2.14;100.00;103296.88;4975181;28;20049;-79
2023/01/25 02:53:36;;;;;;;46.45;22.77;;;;;;;2.13;100.00;103292.53;4977789;28;20073;-80
2023/01/25 02:56:03;;;;;;;47.97;23.05;;;;;;;2.17;100.00;103299.06;4969466;28;20043;-79
2023/01/25 02:58:30;;;;;;;45.60;23.17;;;;;;;2.17;100.00;103305.31;4985522;28;20053;-79
2023/01/25 03:00:57;;;;;;;48.85;24.90;;;;;;;2.15;100.00;103299.34;4989769;28;20064;-78
2023/01/25 03:03:24;;;;;;;45.05;23.80;;;;;;;2.14;100.00;103291.41;4981518;28;20047;-80
2023/01/25 03:05:50;;;;;;;44.10;22.98;;;;;;;2.11;100.00;103281.88;4987201;28;20050;-79
2023/01/25 03:08:16;;;;;;;42.88;23.20;;;;;;;2.18;100.00;103285.13;4988841;28;20073;-79
2023/01/25 03:10:43;;;;;;;41.60;22.23;;;;;;;2.15;100.00;103288.41;4980852;28;20050;-79
2023/01/25 03:13:10;;;;;;;46.90;22.92;;;;;;;2.15;100.00;103280.22;4974498;28;20051;-80
2023/01/25 03:15:36;;;;;;;43.47;22.35;;;;;;;2.12;100.00;103277.19;4973796;28;20489;-79
2023/01/25 03:18:03;;;;;;;42.35;21.45;;;;;;;2.12;100.00;103267.09;4976346;28;20114;-80
2023/01/25 03:20:30;;;;;;;45.25;23.30;;;;;;;2.13;100.00;103276.13;4985724;28;20141;-78
2023/01/25 03:22:56;;;;;;;41.08;22.08;;;;;;;2.08;100.00;103262.47;4992278;28;20043;-79
2023/01/25 03:25:22;;;;;;;41.92;22.65;;;;;;;2.09;100.00;103258.63;4994349;28;20047;-80
2023/01/25 03:27:49;;;;;;;40.67;22.17;;;;;;;2.16;100.00;103256.47;4983786;28;20512;-78
2023/01/25 03:30:15;;;;;;;42.47;22.35;;;;;;;2.14;100.00;103254.00;4975757;28;20175;-79
2023/01/25 03:32:42;;;;;;;42.00;22.63;;;;;;;2.15;100.00;103255.63;4987365;28;20039;-81
2023/01/25 03:35:08;;;;;;;43.42;23.50;;;;;;;2.15;100.00;103246.59;4988372;28;20046;-80
2023/01/25 03:37:35;;;;;;;41.40;21.40;;;;;;;2.12;100.00;103247.16;4992790;28;20046;-81
2023/01/25 03:40:02;;;;;;;42.08;23.23;;;;;;;2.10;100.00;103246.63;4987825;28;20042;-80
2023/01/25 03:42:29;;;;;;;38.72;19.65;;;;;;;2.13;100.00;103246.88;4998720;28;20042;-81
2023/01/25 03:44:55;;;;;;;44.92;23.67;;;;;;;2.04;100.00;103234.09;4999990;28;20046;-81
2023/01/25 03:47:22;;;;;;;42.13;22.75;;;;;;;2.10;100.00;103243.91;4982068;28;20039;-81
2023/01/25 03:49:48;;;;;;;43.30;22.30;;;;;;;2.09;100.00;103228.59;4994474;28;20059;-78
2023/01/25 03:52:15;;;;;;;45.20;24.17;;;;;;;2.08;100.00;103233.25;4983493;28;20053;-79
2023/01/25 03:54:41;;;;;;;40.80;23.02;;;;;;;2.10;100.00;103224.78;4979974;28;20125;-81
2023/01/25 03:57:08;;;;;;;44.45;23.45;;;;;;;2.08;100.00;103224.25;4997078;28;20046;-79
2023/01/25 03:59:34;;;;;;;41.05;22.55;;;;;;;2.07;100.00;103217.97;4993692;28;20836;-79
2023/01/25 04:02:01;;;;;;;41.70;22.60;;;;;;;2.10;100.00;103222.06;4988476;28;20052;-80
2023/01/25 04:04:28;;;;;;;50.45;23.38;;;;;;;2.04;100.00;103212.25;4992766;28;20069;-79
2023/01/25 04:06:54;;;;;;;42.55;23.50;;;;;;;2.07;100.00;103219.88;4988822;28;20047;-81
2023/01/25 04:09:21;;;;;;;48.58;23.88;;;;;;;2.11;100.00;103207.28;4975518;28;20047;-79
2023/01/25 04:11:49;;;;;;;42.03;23.40;;;;;;;2.10;100.00;103209.19;4965340;28;20502;-79
2023/01/25 04:14:16;;;;;;;42.10;22.80;;;;;;;2.09;100.00;103198.56;4993260;28;20046;-79
2023/01/25 04:16:51;;;;;;;48.03;25.20;;;;;;;2.06;100.00;103194.47;4982963;28;20809;-79
2023/01/25 04:19:17;;;;;;;47.50;27.52;;;;;;;2.05;100.00;103195.59;4981454;28;20138;-80
2023/01/25 04:21:44;;;;;;;45.83;24.08;;;;;;;1.97;100.00;103192.63;4974460;28;20166;-80
2023/01/25 04:24:10;;;;;;;53.30;25.08;;;;;;;1.88;100.00;103188.81;4985946;28;20045;-78
2023/01/25 04:26:37;;;;;;;45.38;24.55;;;;;;;1.84;100.00;103180.38;4993352;28;20073;-78
2023/01/25 04:29:03;;;;;;;48.92;26.38;;;;;;;1.91;100.00;103191.00;4971245;28;20046;-80
2023/01/25 04:31:30;;;;;;;49.88;26.25;;;;;;;1.90;100.00;103183.91;4979669;28;20081;-82
2023/01/25 04:33:57;;;;;;;42.53;23.52;;;;;;;1.87;100.00;103179.84;4973651;28;20047;-82
2023/01/25 04:36:23;;;;;;;45.78;24.60;;;;;;;1.88;100.00;103180.63;4987628;28;20389;-79
2023/01/25 04:38:50;;;;;;;46.08;26.20;;;;;;;1.86;100.00;103180.91;4987488;28;20078;-79
2023/01/25 04:41:16;;;;;;;45.72;25.20;;;;;;;1.84;100.00;103179.56;4987894;28;20081;-79
2023/01/25 04:43:43;;;;;;;47.60;24.58;;;;;;;1.80;100.00;103179.31;4989526;28;20047;-79
2023/01/25 04:46:09;;;;;;;47.30;24.48;;;;;;;1.75;100.00;103175.78;4988285;28;20061;-80
2023/01/25 04:48:36;;;;;;;44.67;22.77;;;;;;;1.72;100.00;103174.41;4970453;28;20057;-78
2023/01/25 04:51:02;;;;;;;51.20;26.45;;;;;;;1.71;100.00;103174.69;4982071;28;20061;-80
2023/01/25 04:53:29;;;;;;;44.75;23.05;;;;;;;1.71;100.00;103170.06;4988000;28;20052;-78
2023/01/25 04:55:55;;;;;;;37.45;19.33;;;;;;;1.60;100.00;103165.75;4987311;28;20054;-77
2023/01/25 04:58:22;;;;;;;42.80;22.90;;;;;;;1.62;100.00;103170.94;4986888;28;20053;-80
2023/01/25 05:00:48;;;;;;;44.72;22.10;;;;;;;1.55;100.00;103170.41;4995135;28;20050;-81
2023/01/25 05:03:15;;;;;;;33.35;17.98;;;;;;;1.43;100.00;103172.63;4976972;28;20046;-79
2023/01/25 05:05:46;;;;;;;22.00;10.50;;;;;;;1.44;100.00;103179.69;4986233;28;20050;-79
2023/01/25 05:08:13;;;;;;;45.50;25.20;;;;;;;1.39;100.00;103160.63;4980764;28;20043;-79
2023/01/25 05:10:39;;;;;;;45.97;25.88;;;;;;;1.45;100.00;103162.25;4985456;28;20092;-79
2023/01/25 05:13:06;;;;;;;55.47;29.02;;;;;;;1.45;100.00;103175.91;4990537;28;20511;-82
2023/01/25 05:15:32;;;;;;;39.40;17.42;;;;;;;1.33;100.00;103165.28;4996680;28;20073;-80
2023/01/25 05:17:59;;;;;;;27.02;13.73;;;;;;;1.35;100.00;103179.44;4992728;28;20125;-79
2023/01/25 05:20:25;;;;;;;41.35;20.58;;;;;;;1.34;100.00;103179.72;4996921;28;20046;-80
2023/01/25 05:22:52;;;;;;;43.25;21.90;;;;;;;1.32;100.00;103177.25;4978320;28;20509;-80
2023/01/25 05:28:06;;;;;;;30.02;15.23;;;;;;;1.19;100.00;103177.84;4967878;28;20062;-80
2023/01/25 05:30:33;;;;;;;42.08;22.05;;;;;;;1.24;100.00;103177.00;4986813;28;20507;-81
2023/01/25 05:33:00;;;;;;;51.38;26.15;;;;;;;1.28;100.00;103167.22;4986979;28;20043;-79
2023/01/25 05:35:26;;;;;;;48.63;25.08;;;;;;;1.28;100.00;103169.94;4985656;28;20058;-80
2023/01/25 05:37:57;;;;;;;49.78;23.73;;;;;;;1.29;100.00;103179.75;4985537;28;20051;-81
2023/01/25 05:40:25;;;;;;;20.85;11.05;;;;;;;1.16;100.00;103167.50;4991055;28;20058;-80
2023/01/25 05:42:58;;;;;;;39.30;19.17;;;;;;;1.20;100.00;103181.38;4978502;28;20054;-81
2023/01/25 05:45:25;;;;;;;43.13;20.05;;;;;;;1.13;100.00;103173.50;4990424;28;20536;-80
2023/01/25 05:47:53;;;;;;;48.13;24.45;;;;;;;1.16;100.00;103166.66;4993090;28;20110;-79
2023/01/25 05:50:21;;;;;;;53.65;25.75;;;;;;;1.15;100.00;103168.56;4986890;28;20062;-81
2023/01/25 05:52:48;;;;;;;52.33;26.48;;;;;;;1.20;100.00;103175.94;4989182;28;20109;-78
2023/01/25 05:55:15;;;;;;;48.60;24.02;;;;;;;1.13;100.00;103165.31;4986276;28;20110;-81
2023/01/25 05:57:42;;;;;;;49.97;25.10;;;;;;;1.22;100.00;103160.91;4979215;28;20065;-79
2023/01/25 06:00:09;;;;;;;50.03;20.98;;;;;;;1.11;100.00;103166.69;4987973;28;20058;-80
2023/01/25 06:02:36;;;;;;;47.28;22.85;;;;;;;1.09;100.00;103163.41;4985373;28;20054;-80
2023/01/25 06:05:03;;;;;;;39.20;16.77;;;;;;;1.05;100.00;103171.31;4979170;28;20038;-80
2023/01/25 06:07:35;;;;;;;44.75;18.23;;;;;;;1.04;100.00;103164.22;4988110;28;20510;-80
2023/01/25 06:10:03;;;;;;;51.58;26.42;;;;;;;1.12;100.00;103168.31;4976575;28;20042;-80
2023/01/25 06:12:30;;;;;;;51.88;25.83;;;;;;;1.17;100.00;103166.41;4976859;28;20077;-79
2023/01/25 06:14:57;;;;;;;54.15;27.38;;;;;;;1.17;100.00;103162.84;4984998;28;20050;-80
2023/01/25 06:17:23;;;;;;;44.78;20.80;;;;;;;1.02;100.00;103155.53;4981240;28;20046;-79
2023/01/25 06:19:50;;;;;;;48.88;22.52;;;;;;;1.08;100.00;103169.97;4973281;28;20058;-81
2023/01/25 06:22:16;;;;;;;42.28;19.52;;;;;;;0.97;100.00;103160.97;4975559;28;20158;-81
2023/01/25 06:24:43;;;;;;;54.03;27.83;;;;;;;1.05;100.00;103154.16;4976251;28;20042;-80
2023/01/25 06:27:11;;;;;;;53.63;25.02;;;;;;;1.20;100.00;103168.56;4993162;28;20557;-81
2023/01/25 06:29:38;;;;;;;56.35;27.38;;;;;;;1.23;100.00;103157.13;4999501;28;20066;-81
2023/01/25 06:32:04;;;;;;;24.15;9.73;;;;;;;1.11;100.00;103172.16;4985117;28;20046;-81
2023/01/25 06:34:31;;;;;;;52.92;25.05;;;;;;;1.07;100.00;103157.41;4979061;28;20042;-80
2023/01/25 06:36:57;;;;;;;46.25;20.98;;;;;;;1.05;100.00;103173.22;4985700;28;20093;-80
2023/01/25 06:39:24;;;;;;;50.13;25.20;;;;;;;1.08;100.00;103159.84;4994585;28;20073;-78
2023/01/25 06:41:50;;;;;;;56.72;25.15;;;;;;;1.12;100.00;103160.97;4995934;28;20089;-82
2023/01/25 06:44:17;;;;;;;60.50;27.73;;;;;;;1.14;100.00;103152.47;5004747;28;20069;-81
2023/01/25 06:46:43;;;;;;;58.60;26.90;;;;;;;1.18;100.00;103169.94;4979272;28;20070;-82
2023/01/25 06:49:10;;;;;;;60.13;27.70;;;;;;;1.17;100.00;103165.56;4981827;28;20047;-79
2023/01/25 06:51:36;;;;;;;57.65;25.48;;;;;;;1.16;100.00;103169.41;4987171;28;20089;-81
2023/01/25 06:54:03;;;;;;;56.28;26.98;;;;;;;1.13;100.00;103168.03;4986895;28;20576;-80
2023/01/25 06:56:31;;;;;;;55.30;25.52;;;;;;;1.05;100.00;103159.59;4986647;28;20038;-80
2023/01/25 06:58:58;;;;;;;60.35;29.30;;;;;;;1.06;100.00;103162.06;4988040;28;20062;-80
2023/01/25 07:01:25;;;;;;;58.50;27.45;;;;;;;1.11;100.00;103175.66;4983790;28;20123;-81
2023/01/25 07:03:55;;;;;;;61.70;28.48;;;;;;;1.09;100.00;103166.13;4982350;28;20062;-80
2023/01/25 07:06:22;;;;;;;62.80;30.83;;;;;;;1.16;100.00;103167.50;4983152;28;20053;-80
2023/01/25 07:08:49;;;;;;;75.05;33.08;;;;;;;1.21;100.00;103158.50;4989751;28;20046;-79
2023/01/25 07:11:17;;;;;;;66.07;31.00;;;;;;;1.24;100.00;103166.09;4994140;28;20057;-81
2023/01/25 07:13:46;;;;;;;66.68;29.83;;;;;;;1.25;100.00;103170.47;4982412;28;20047;-81
2023/01/25 07:16:18;;;;;;;62.70;30.42;;;;;;;1.27;100.00;103158.19;4981156;28;20095;-81
2023/01/25 07:18:45;;;;;;;63.85;29.00;;;;;;;1.29;100.00;103166.09;4990007;28;20046;-80
2023/01/25 07:21:19;;;;;;;65.15;31.23;;;;;;;1.27;100.00;103158.19;4986875;28;20051;-81
2023/01/25 07:23:46;;;;;;;63.92;29.00;;;;;;;1.30;100.00;103165.81;4978937;28;20394;-80
2023/01/25 07:26:17;;;;;;;67.30;32.33;;;;;;;1.34;100.00;103157.91;4979561;28;20049;-80
2023/01/25 07:28:45;;;;;;;64.30;29.98;;;;;;;1.32;100.00;103143.72;4984419;28;20048;-80
2023/01/25 07:31:13;;;;;;;62.50;31.52;;;;;;;1.38;100.00;103153.53;4996646;28;20061;-80
2023/01/25 07:33:40;;;;;;;59.00;27.55;;;;;;;1.33;100.00;103137.16;4978291;28;20106;-80
2023/01/25 07:36:08;;;;;;;62.00;31.92;;;;;;;1.43;100.00;103145.31;4973984;28;20050;-79
2023/01/25 07:38:36;;;;;;;65.38;30.55;;;;;;;1.43;100.00;103151.63;4980163;28;20051;-81
2023/01/25 07:41:03;;;;;;;66.20;30.05;;;;;;;1.42;100.00;103141.78;4984096;28;20046;-78
2023/01/25 07:43:30;;;;;;;64.05;31.38;;;;;;;1.44;100.00;103144.22;4985929;28;20654;-79
2023/01/25 07:46:05;;;;;;;56.35;26.92;;;;;;;1.38;100.00;103146.16;4973038;28;20054;-78
2023/01/25 07:48:32;;;;;;;25.75;10.82;;;;;;;1.11;100.00;103142.16;4972426;28;21474;-77
2023/01/25 07:51:21;;;;;;;67.40;32.15;;;;;;;1.08;100.00;103146.22;4973470;28;20068;-77
2023/01/25 07:53:52;;;;;;;64.68;30.77;;;;;;;0.97;100.00;103144.59;4981176;28;20043;-74
2023/01/25 07:56:24;;;;;;;75.45;34.35;;;;;;;0.92;100.00;103133.72;4976132;28;20050;-74
2023/01/25 07:58:55;;;;;;;69.25;34.00;;;;;;;0.95;100.00;103143.25;4978282;28;20042;-78
2023/01/25 08:01:24;;;;;;;64.32;32.35;;;;;;;0.96;100.00;103140.25;4969390;28;20093;-77
2023/01/25 08:03:52;;;;;;;71.45;35.67;;;;;;;1.04;100.00;103142.41;4982647;28;20054;-78
2023/01/25 08:06:26;;;;;;;76.80;35.97;;;;;;;1.02;100.00;103139.16;4979159;28;20146;-79
2023/01/25 08:08:54;;;;;;;75.90;36.25;;;;;;;1.01;100.00;103136.72;4978110;28;20735;-78
2023/01/25 08:11:26;;;;;;;79.90;39.95;;;;;;;1.03;100.00;103142.69;4974239;28;20057;-78
2023/01/25 08:13:53;;;;;;;71.50;32.88;;;;;;;0.96;100.00;103136.69;4981078;28;20044;-78
2023/01/25 08:16:25;;;;;;;82.22;41.33;;;;;;;1.02;100.00;103138.34;4984878;28;20057;-79
2023/01/25 08:18:53;;;;;;;70.47;37.42;;;;;;;1.09;100.00;103138.88;4990094;28;20061;-78
2023/01/25 08:21:23;;;;;;;80.80;40.47;;;;;;;1.13;100.00;103134.50;4988848;28;20050;-78
2023/01/25 08:23:50;;;;;;;84.78;39.55;;;;;;;1.19;100.00;103130.66;4982952;28;20402;-78
2023/01/25 08:26:17;;;;;;;82.18;40.08;;;;;;;1.22;100.00;103133.63;4973208;28;20050;-78
2023/01/25 08:28:43;;;;;;;74.50;37.88;;;;;;;1.18;100.00;103120.84;4981163;28;20129;-78
2023/01/25 08:31:13;;;;;;;77.15;36.47;;;;;;;1.20;100.00;103129.56;4985966;28;20047;-78
2023/01/25 08:33:41;;;;;;;40.92;20.10;;;;;;;0.98;100.00;103131.81;4974799;28;20043;-79
2023/01/25 08:36:09;;;;;;;26.20;11.30;;;;;;;0.91;100.00;103126.63;4976755;28;20475;-78
2023/01/25 08:38:37;;;;;;;31.27;13.80;;;;;;;0.89;100.00;103122.53;4988350;28;20043;-79
2023/01/25 08:41:11;;;;;;;42.88;17.48;;;;;;;0.85;100.00;103121.44;4970882;28;20050;-78
2023/01/25 08:43:38;;;;;;;77.23;39.43;;;;;;;0.97;100.00;103127.41;4975403;28;20101;-78
2023/01/25 08:46:05;;;;;;;81.60;41.88;;;;;;;0.99;100.00;103127.97;4964291;28;20400;-79
2023/01/25 08:48:32;;;;;;;81.00;40.80;;;;;;;1.00;100.00;103127.69;4981605;28;20051;-78
2023/01/25 08:50:59;;;;;;;87.20;43.45;;;;;;;1.08;100.00;103131.78;4980322;28;20082;-79
2023/01/25 08:53:30;;;;;;;77.93;40.38;;;;;;;1.14;100.00;103125.22;4983399;28;20050;-78
2023/01/25 08:56:05;;;;;;;83.25;40.35;;;;;;;1.09;100.00;103112.44;4975351;28;20141;-78
2023/01/25 08:58:32;;;;;;;58.60;24.80;;;;;;;1.00;100.00;103108.63;4972099;28;20078;-78
2023/01/25 09:01:05;;;;;;;81.70;39.90;;;;;;;1.04;100.00;103119.81;4978320;28;20061;-78
2023/01/25 09:03:36;;;;;;;77.38;37.38;;;;;;;1.11;100.00;103128.50;4972782;28;20046;-78
2023/01/25 09:06:03;;;;;;;73.68;36.08;;;;;;;1.06;100.00;103120.31;4982418;28;20438;-78
2023/01/25 09:08:30;;;;;;;82.25;40.40;;;;;;;1.11;100.00;103109.44;4984174;28;20081;-79
2023/01/25 09:11:08;;;;;;;79.45;38.20;;;;;;;1.20;100.00;103113.19;4988498;28;20482;-78
2023/01/25 09:13:35;;;;;;;69.65;34.38;;;;;;;1.13;100.00;103105.31;4983824;28;20091;-78
2023/01/25 09:16:08;;;;;;;74.90;35.97;;;;;;;1.16;100.00;103095.75;4972333;28;20042;-78
2023/01/25 09:18:36;;;;;;;73.82;37.58;;;;;;;1.22;100.00;103090.00;4986585;28;20050;-78
2023/01/25 09:21:15;;;;;;;72.38;34.80;;;;;;;1.35;100.00;103100.31;4990067;28;20046;-78
2023/01/25 09:23:45;;;;;;;64.97;30.88;;;;;;;1.44;100.00;103101.41;4989652;28;20141;-78
2023/01/25 09:26:30;;;;;;;75.25;35.42;;;;;;;1.48;100.00;103094.28;4974038;28;20130;-80
2023/01/25 09:28:58;;;;;;;67.22;33.10;;;;;;;1.53;100.00;103085.25;4966894;28;20043;-79
2023/01/25 09:31:24;;;;;;;68.97;31.88;;;;;;;1.43;100.00;103082.56;4973975;28;20057;-79
2023/01/25 09:33:55;;;;;;;78.50;37.15;;;;;;;1.42;100.00;103079.03;4982685;28;20129;-79
2023/01/25 09:36:21;;;;;;;68.40;33.38;;;;;;;1.48;100.00;103080.63;4975905;28;20129;-79
2023/01/25 09:38:48;;;;;;;72.22;34.40;;;;;;;1.51;100.00;103077.34;4967901;28;20137;-76
2023/01/25 09:41:33;;;;;;;66.53;33.78;;;;;;;1.54;100.00;103082.25;4967479;28;20046;-77
2023/01/25 09:44:19;;;;;;;73.50;36.15;;;;;;;1.53;100.00;103069.72;4972214;28;20085;-79
2023/01/25 09:46:52;;;;;;;58.08;26.80;;;;;;;1.41;100.00;103082.84;4980732;28;20752;-79
2023/01/25 09:49:47;;;;;;;69.63;32.38;;;;;;;1.32;100.00;103079.06;4972747;28;20042;-77
2023/01/25 09:52:42;;;;;;;56.00;25.25;;;;;;;1.19;100.00;103071.50;4966104;28;20393;-79
2023/01/25 09:55:15;;;;;;;78.35;36.22;;;;;;;1.24;100.00;103065.19;4968774;28;20052;-77
2023/01/25 09:57:44;;;;;;;82.88;38.35;;;;;;;1.31;100.00;103071.97;4967297;28;20043;-77
2023/01/25 10:00:22;;;;;;;69.80;33.92;;;;;;;1.35;100.00;103083.97;4978606;28;20047;-80
2023/01/25 10:02:55;;;;;;;74.35;34.17;;;;;;;1.36;100.00;103071.16;4975354;28;20046;-77
2023/01/25 10:05:27;;;;;;;76.85;36.75;;;;;;;1.43;100.00;103075.22;4962458;28;20051;-79
2023/01/25 10:08:02;;;;;;;75.10;37.28;;;;;;;1.47;100.00;103073.56;4975962;28;20145;-80
2023/01/25 10:10:35;;;;;;;79.15;34.70;;;;;;;1.35;100.00;103059.41;4975540;28;20134;-79
2023/01/25 10:13:08;;;;;;;96.32;38.05;;;;;;;1.34;100.00;103067.88;4970658;28;20409;-78
2023/01/25 10:15:39;;;;;;;97.95;43.25;;;;;;;1.40;100.00;103061.31;4964157;28;20039;-78
2023/01/25 10:18:17;;;;;;;95.63;40.47;;;;;;;1.42;100.00;103067.31;4969062;28;20134;-78
2023/01/25 10:20:53;;;;;;;90.03;41.90;;;;;;;1.48;100.00;103066.19;4969333;28;20051;-78
2023/01/25 10:23:33;;;;;;;82.60;38.00;;;;;;;1.39;100.00;103054.22;4962618;28;21688;-76
2023/01/25 10:26:07;;;;;;;80.70;39.28;;;;;;;1.49;100.00;103065.91;4963163;28;20045;-77
2023/01/25 10:29:09;;;;;;;84.32;39.80;;;;;;;1.53;100.00;103061.53;4962618;28;20046;-77
2023/01/25 10:31:49;;;;;;;83.70;38.58;;;;;;;1.54;100.00;103045.97;4967951;28;20159;-78
2023/01/25 10:34:23;;;;;;;80.88;38.35;;;;;;;1.64;100.00;103040.44;4959230;28;20145;-77
2023/01/25 10:37:10;;;;;;;89.63;40.80;;;;;;;1.67;100.00;103037.97;4958991;28;20590;-77
2023/01/25 10:39:53;;;;;;;75.53;31.80;;;;;;;1.69;100.00;103043.16;4962646;28;20059;-80
2023/01/25 10:42:23;;;;;;;74.85;35.15;;;;;;;1.64;100.00;103029.53;4964141;28;20057;-79
2023/01/25 10:44:49;;;;;;;74.60;34.50;;;;;;;1.64;100.00;103024.91;4967889;28;20051;-76
2023/01/25 10:47:27;;;;;;;68.13;31.75;;;;;;;1.57;100.00;103027.13;4966853;28;20193;-77
2023/01/25 10:49:58;;;;;;;70.65;34.78;;;;;;;1.56;100.00;103020.03;4967559;28;20057;-76
2023/01/25 10:52:30;;;;;;;84.60;40.47;;;;;;;1.53;100.00;103011.59;4968930;28;20053;-78
2023/01/25 10:55:24;;;;;;;81.68;37.33;;;;;;;1.59;100.00;103014.00;4966844;28;20549;-77
2023/01/25 10:57:59;;;;;;;87.45;35.60;;;;;;;1.66;100.00;103003.59;4965324;28;20054;-78
2023/01/25 11:00:37;;;;;;;83.28;36.53;;;;;;;1.75;100.00;103001.06;4968630;28;20050;-79
2023/01/25 11:03:04;;;;;;;76.82;36.47;;;;;;;1.75;100.00;103012.00;4960873;28;20133;-79
2023/01/25 11:05:38;;;;;;;76.78;33.92;;;;;;;1.63;100.00;102996.00;4964757;28;20042;-79
2023/01/25 11:08:20;;;;;;;77.57;36.75;;;;;;;1.68;100.00;102995.94;4960868;28;20157;-78
2023/01/25 11:10:47;;;;;;;38.40;17.13;;;;;;;1.54;100.00;102992.22;4967480;28;20099;-79
2023/01/25 11:13:13;;;;;;;79.97;39.08;;;;;;;1.65;100.00;102985.59;4969536;28;20057;-80
2023/01/25 11:15:40;;;;;;;76.28;35.47;;;;;;;1.46;100.00;102989.25;4961584;28;20082;-77
2023/01/25 11:18:22;;;;;;;84.68;35.47;;;;;;;1.43;100.00;102981.63;4968764;28;20054;-77
2023/01/25 11:21:31;;;;;;;78.72;35.30;;;;;;;1.36;100.00;102972.94;4968044;28;20142;-77
2023/01/25 11:24:01;;;;;;;65.20;28.85;;;;;;;1.34;100.00;102964.22;4890072;29;20159;-79